sensor_id;sensor_type;location;lat;lon;timestamp;pressure;altitude;pressure_sealevel;temperature;humidity
9676;BME280;4876;42.656;23.292;2022-09-12T00:00:12;94172.41;;;15.49;93.52
9676;BME280;4876;42.656;23.292;2022-09-12T00:02:40;94178.13;;;15.51;93.84
9676;BME280;4876;42.656;23.292;2022-09-12T00:05:07;94174.28;;;15.33;94.54
9676;BME280;4876;42.656;23.292;2022-09-12T00:07:34;94171.31;;;15.19;94.68
9676;BME280;4876;42.656;23.292;2022-09-12T00:10:00;94177.22;;;15.12;94.79
9676;BME280;4876;42.656;23.292;2022-09-12T00:12:29;94174.91;;;15.11;92.35
9676;BME280;4876;42.656;23.292;2022-09-12T00:14:55;94183.00;;;15.02;92.76
9676;BME280;4876;42.656;23.292;2022-09-12T00:17:22;94186.25;;;14.95;92.67
9676;BME280;4876;42.656;23.292;2022-09-12T00:19:49;94193.09;;;15.12;92.01
9676;BME280;4876;42.656;23.292;2022-09-12T00:22:15;94184.13;;;15.17;91.46
9676;BME280;4876;42.656;23.292;2022-09-12T00:24:42;94192.69;;;15.10;91.15
9676;BME280;4876;42.656;23.292;2022-09-12T00:27:09;94193.63;;;15.18;90.40
9676;BME280;4876;42.656;23.292;2022-09-12T00:29:37;94194.19;;;14.95;91.07
9676;BME280;4876;42.656;23.292;2022-09-12T00:32:04;94191.47;;;15.07;91.31
9676;BME280;4876;42.656;23.292;2022-09-12T00:34:31;94182.41;;;15.08;90.67
9676;BME280;4876;42.656;23.292;2022-09-12T00:36:58;94197.97;;;15.10;90.77
9676;BME280;4876;42.656;23.292;2022-09-12T00:39:24;94192.69;;;15.26;89.69
9676;BME280;4876;42.656;23.292;2022-09-12T00:41:51;94191.13;;;15.09;89.01
9676;BME280;4876;42.656;23.292;2022-09-12T00:44:49;94189.75;;;14.99;89.41
9676;BME280;4876;42.656;23.292;2022-09-12T00:47:20;94187.69;;;14.77;90.56
9676;BME280;4876;42.656;23.292;2022-09-12T00:49:50;94188.44;;;14.77;90.81
9676;BME280;4876;42.656;23.292;2022-09-12T00:52:22;94183.25;;;14.81;90.27
9676;BME280;4876;42.656;23.292;2022-09-12T00:54:54;94186.56;;;14.78;89.18
9676;BME280;4876;42.656;23.292;2022-09-12T00:57:25;94185.91;;;14.81;89.90
9676;BME280;4876;42.656;23.292;2022-09-12T00:59:57;94169.25;;;14.80;88.95
9676;BME280;4876;42.656;23.292;2022-09-12T01:02:26;94167.19;;;14.74;89.39
9676;BME280;4876;42.656;23.292;2022-09-12T01:04:53;94173.06;;;14.67;88.92
9676;BME280;4876;42.656;23.292;2022-09-12T01:07:20;94172.84;;;14.72;89.19
9676;BME280;4876;42.656;23.292;2022-09-12T01:09:48;94169.50;;;14.75;88.88
9676;BME280;4876;42.656;23.292;2022-09-12T01:12:15;94152.38;;;14.57;86.93
9676;BME280;4876;42.656;23.292;2022-09-12T01:14:42;94167.84;;;14.71;87.39
9676;BME280;4876;42.656;23.292;2022-09-12T01:17:12;94153.31;;;14.49;87.56
9676;BME280;4876;42.656;23.292;2022-09-12T01:20:05;94165.09;;;14.51;87.52
9676;BME280;4876;42.656;23.292;2022-09-12T01:23:04;94155.16;;;14.20;87.21
9676;BME280;4876;42.656;23.292;2022-09-12T01:25:46;94168.63;;;14.43;86.57
9676;BME280;4876;42.656;23.292;2022-09-12T01:28:35;94178.66;;;14.50;86.48
9676;BME280;4876;42.656;23.292;2022-09-12T01:31:12;94171.28;;;14.43;86.51
9676;BME280;4876;42.656;23.292;2022-09-12T01:33:55;94169.97;;;14.37;87.17
9676;BME280;4876;42.656;23.292;2022-09-12T01:36:35;94164.94;;;14.32;86.96
9676;BME280;4876;42.656;23.292;2022-09-12T01:39:05;94168.22;;;14.41;87.06
9676;BME280;4876;42.656;23.292;2022-09-12T01:41:42;94159.97;;;14.31;87.52
9676;BME280;4876;42.656;23.292;2022-09-12T01:44:21;94172.44;;;14.30;87.45
9676;BME280;4876;42.656;23.292;2022-09-12T01:46:54;94166.91;;;14.35;87.39
9676;BME280;4876;42.656;23.292;2022-09-12T01:49:28;94166.56;;;14.37;87.78
9676;BME280;4876;42.656;23.292;2022-09-12T01:52:01;94168.25;;;14.29;87.78
9676;BME280;4876;42.656;23.292;2022-09-12T01:54:34;94166.00;;;14.43;87.73
9676;BME280;4876;42.656;23.292;2022-09-12T01:57:09;94163.81;;;14.33;86.96
9676;BME280;4876;42.656;23.292;2022-09-12T01:59:40;94157.38;;;14.46;86.92
9676;BME280;4876;42.656;23.292;2022-09-12T02:02:13;94157.88;;;14.36;86.88
9676;BME280;4876;42.656;23.292;2022-09-12T02:04:45;94158.00;;;14.27;86.78
9676;BME280;4876;42.656;23.292;2022-09-12T02:07:19;94155.69;;;14.26;86.78
9676;BME280;4876;42.656;23.292;2022-09-12T02:10:07;94165.06;;;14.23;86.38
9676;BME280;4876;42.656;23.292;2022-09-12T02:12:39;94060.13;;;13.43;87.06
9676;BME280;4876;42.656;23.292;2022-09-12T02:15:09;94168.53;;;14.12;87.56
9676;BME280;4876;42.656;23.292;2022-09-12T02:17:41;94162.59;;;14.02;87.09
9676;BME280;4876;42.656;23.292;2022-09-12T02:20:13;94160.97;;;13.98;87.87
9676;BME280;4876;42.656;23.292;2022-09-12T02:22:43;94162.16;;;14.00;87.32
9676;BME280;4876;42.656;23.292;2022-09-12T02:25:12;94163.91;;;14.09;86.97
9676;BME280;4876;42.656;23.292;2022-09-12T02:27:44;94143.84;;;13.80;87.30
9676;BME280;4876;42.656;23.292;2022-09-12T02:30:14;94165.25;;;14.02;87.00
9676;BME280;4876;42.656;23.292;2022-09-12T02:32:55;94165.78;;;14.08;86.25
9676;BME280;4876;42.656;23.292;2022-09-12T02:35:30;94155.97;;;14.09;85.70
9676;BME280;4876;42.656;23.292;2022-09-12T02:38:02;94155.72;;;14.14;85.81
9676;BME280;4876;42.656;23.292;2022-09-12T02:40:31;94157.72;;;14.17;84.98
9676;BME280;4876;42.656;23.292;2022-09-12T02:42:59;94162.75;;;14.22;85.04
9676;BME280;4876;42.656;23.292;2022-09-12T02:45:26;94157.47;;;14.22;85.00
9676;BME280;4876;42.656;23.292;2022-09-12T02:47:59;94169.19;;;14.09;85.05
9676;BME280;4876;42.656;23.292;2022-09-12T02:50:28;94163.13;;;14.08;85.57
9676;BME280;4876;42.656;23.292;2022-09-12T02:52:55;94169.19;;;14.09;85.47
9676;BME280;4876;42.656;23.292;2022-09-12T02:55:26;94165.53;;;14.13;85.94
9676;BME280;4876;42.656;23.292;2022-09-12T02:57:54;94162.75;;;14.22;85.41
9676;BME280;4876;42.656;23.292;2022-09-12T03:00:21;94159.28;;;14.06;86.02
9676;BME280;4876;42.656;23.292;2022-09-12T03:03:12;94165.25;;;14.02;86.79
9676;BME280;4876;42.656;23.292;2022-09-12T03:05:53;94166.28;;;13.86;87.54
9676;BME280;4876;42.656;23.292;2022-09-12T03:08:40;94171.56;;;13.86;88.67
9676;BME280;4876;42.656;23.292;2022-09-12T03:11:33;94176.50;;;13.99;88.56
9676;BME280;4876;42.656;23.292;2022-09-12T03:14:15;94172.34;;;13.86;88.42
9676;BME280;4876;42.656;23.292;2022-09-12T03:16:52;94186.75;;;13.89;88.89
9676;BME280;4876;42.656;23.292;2022-09-12T03:19:32;94187.19;;;13.79;89.00
9676;BME280;4876;42.656;23.292;2022-09-12T03:22:09;94183.78;;;13.90;89.29
9676;BME280;4876;42.656;23.292;2022-09-12T03:24:43;94177.72;;;13.90;88.62
9676;BME280;4876;42.656;23.292;2022-09-12T03:27:16;94176.09;;;13.85;88.89
9676;BME280;4876;42.656;23.292;2022-09-12T03:29:46;94176.94;;;13.89;88.88
9676;BME280;4876;42.656;23.292;2022-09-12T03:32:15;94181.28;;;14.10;88.49
9676;BME280;4876;42.656;23.292;2022-09-12T03:34:43;94180.44;;;14.06;88.49
9676;BME280;4876;42.656;23.292;2022-09-12T03:37:10;94179.13;;;13.99;88.28
9676;BME280;4876;42.656;23.292;2022-09-12T03:39:36;94185.06;;;14.09;88.30
9676;BME280;4876;42.656;23.292;2022-09-12T03:42:03;94176.16;;;14.01;87.91
9676;BME280;4876;42.656;23.292;2022-09-12T03:44:30;94175.16;;;14.06;88.34
9676;BME280;4876;42.656;23.292;2022-09-12T03:46:57;94172.28;;;14.11;87.75
9676;BME280;4876;42.656;23.292;2022-09-12T03:49:23;94178.47;;;14.02;88.29
9676;BME280;4876;42.656;23.292;2022-09-12T03:51:51;94177.34;;;14.04;88.52
9676;BME280;4876;42.656;23.292;2022-09-12T03:54:18;94172.53;;;13.93;88.90
9676;BME280;4876;42.656;23.292;2022-09-12T03:56:45;94184.16;;;14.17;88.68
9676;BME280;4876;42.656;23.292;2022-09-12T03:59:12;94176.59;;;14.03;88.21
9676;BME280;4876;42.656;23.292;2022-09-12T04:01:38;94179.78;;;13.96;88.94
9676;BME280;4876;42.656;23.292;2022-09-12T04:04:07;94173.81;;;14.12;88.00
9676;BME280;4876;42.656;23.292;2022-09-12T04:06:34;94184.97;;;14.05;88.49
9676;BME280;4876;42.656;23.292;2022-09-12T04:09:03;94184.00;;;13.97;88.40
9676;BME280;4876;42.656;23.292;2022-09-12T04:11:29;94189.34;;;14.13;88.29
9676;BME280;4876;42.656;23.292;2022-09-12T04:13:57;94185.56;;;14.26;87.95
9676;BME280;4876;42.656;23.292;2022-09-12T04:16:23;94193.72;;;14.21;87.35
9676;BME280;4876;42.656;23.292;2022-09-12T04:18:50;94189.13;;;14.46;87.17
9676;BME280;4876;42.656;23.292;2022-09-12T04:21:19;94200.03;;;14.57;84.91
9676;BME280;4876;42.656;23.292;2022-09-12T04:23:46;94197.31;;;14.69;84.48
9676;BME280;4876;42.656;23.292;2022-09-12T04:26:15;94196.78;;;15.07;82.83
9676;BME280;4876;42.656;23.292;2022-09-12T04:28:43;94207.56;;;15.78;79.47
9676;BME280;4876;42.656;23.292;2022-09-12T04:31:11;94201.28;;;16.40;76.39
9676;BME280;4876;42.656;23.292;2022-09-12T04:33:40;94197.22;;;16.66;74.74
9676;BME280;4876;42.656;23.292;2022-09-12T04:36:09;94214.25;;;17.27;72.68
9676;BME280;4876;42.656;23.292;2022-09-12T04:38:36;94213.34;;;17.65;70.49
9676;BME280;4876;42.656;23.292;2022-09-12T04:41:09;94207.63;;;18.16;68.32
9676;BME280;4876;42.656;23.292;2022-09-12T04:43:38;94208.56;;;18.30;67.57
9676;BME280;4876;42.656;23.292;2022-09-12T04:46:05;94201.63;;;18.56;66.67
9676;BME280;4876;42.656;23.292;2022-09-12T04:48:32;94210.94;;;18.69;65.31
9676;BME280;4876;42.656;23.292;2022-09-12T04:51:06;94217.25;;;18.88;65.53
9676;BME280;4876;42.656;23.292;2022-09-12T04:53:33;94213.59;;;19.03;64.56
9676;BME280;4876;42.656;23.292;2022-09-12T04:56:01;94217.06;;;19.07;64.58
9676;BME280;4876;42.656;23.292;2022-09-12T04:58:27;94215.53;;;19.47;63.22
9676;BME280;4876;42.656;23.292;2022-09-12T05:00:56;94217.47;;;19.53;62.36
9676;BME280;4876;42.656;23.292;2022-09-12T05:03:28;94215.41;;;19.77;62.46
9676;BME280;4876;42.656;23.292;2022-09-12T05:05:55;94218.03;;;19.73;61.42
9676;BME280;4876;42.656;23.292;2022-09-12T05:08:22;94215.75;;;19.72;62.09
9676;BME280;4876;42.656;23.292;2022-09-12T05:10:48;94212.75;;;19.32;62.94
9676;BME280;4876;42.656;23.292;2022-09-12T05:13:15;94214.72;;;19.43;62.08
9676;BME280;4876;42.656;23.292;2022-09-12T05:15:42;94216.66;;;19.05;63.60
9676;BME280;4876;42.656;23.292;2022-09-12T05:18:10;94218.91;;;19.40;62.83
9676;BME280;4876;42.656;23.292;2022-09-12T05:20:37;94213.94;;;19.42;62.50
9676;BME280;4876;42.656;23.292;2022-09-12T05:23:03;94218.78;;;19.29;63.36
9676;BME280;4876;42.656;23.292;2022-09-12T05:25:31;94214.22;;;19.26;63.48
9676;BME280;4876;42.656;23.292;2022-09-12T05:27:58;94211.47;;;19.19;62.76
9676;BME280;4876;42.656;23.292;2022-09-12T05:30:24;94224.19;;;19.36;62.48
9676;BME280;4876;42.656;23.292;2022-09-12T05:32:51;94223.31;;;19.66;62.93
9676;BME280;4876;42.656;23.292;2022-09-12T05:35:19;94217.53;;;19.57;62.24
9676;BME280;4876;42.656;23.292;2022-09-12T05:37:46;94195.34;;;19.05;63.16
9676;BME280;4876;42.656;23.292;2022-09-12T05:40:13;94219.25;;;18.64;64.10
9676;BME280;4876;42.656;23.292;2022-09-12T05:42:42;94213.72;;;18.76;64.00
9676;BME280;4876;42.656;23.292;2022-09-12T05:45:09;94220.94;;;18.46;64.59
9676;BME280;4876;42.656;23.292;2022-09-12T05:47:35;94190.66;;;18.61;64.61
9676;BME280;4876;42.656;23.292;2022-09-12T05:50:02;94204.75;;;19.36;62.79
9676;BME280;4876;42.656;23.292;2022-09-12T05:52:36;94221.41;;;19.63;62.29
9676;BME280;4876;42.656;23.292;2022-09-12T05:55:04;94192.53;;;19.31;62.43
9676;BME280;4876;42.656;23.292;2022-09-12T05:57:31;94203.38;;;19.53;62.39
9676;BME280;4876;42.656;23.292;2022-09-12T05:59:58;94209.09;;;19.55;61.20
9676;BME280;4876;42.656;23.292;2022-09-12T06:02:25;94209.81;;;19.48;61.25
9676;BME280;4876;42.656;23.292;2022-09-12T06:04:52;94193.69;;;18.90;63.30
9676;BME280;4876;42.656;23.292;2022-09-12T06:07:19;94190.97;;;18.86;64.12
9676;BME280;4876;42.656;23.292;2022-09-12T06:09:47;94182.34;;;18.66;64.03
9676;BME280;4876;42.656;23.292;2022-09-12T06:12:13;94186.41;;;18.53;64.33
9676;BME280;4876;42.656;23.292;2022-09-12T06:14:40;94191.47;;;18.32;64.58
9676;BME280;4876;42.656;23.292;2022-09-12T06:17:07;94193.69;;;18.26;64.79
9676;BME280;4876;42.656;23.292;2022-09-12T06:19:34;94182.31;;;18.29;64.17
9676;BME280;4876;42.656;23.292;2022-09-12T06:22:01;94187.78;;;18.40;64.44
9676;BME280;4876;42.656;23.292;2022-09-12T06:24:27;94199.31;;;18.51;63.24
9676;BME280;4876;42.656;23.292;2022-09-12T06:26:56;94206.28;;;18.29;64.49
9676;BME280;4876;42.656;23.292;2022-09-12T06:29:22;94210.22;;;18.12;65.36
9676;BME280;4876;42.656;23.292;2022-09-12T06:31:50;94208.75;;;18.45;64.83
9676;BME280;4876;42.656;23.292;2022-09-12T06:34:16;94205.75;;;18.50;64.47
9676;BME280;4876;42.656;23.292;2022-09-12T06:36:45;94214.44;;;18.73;63.59
9676;BME280;4876;42.656;23.292;2022-09-12T06:39:14;94214.28;;;18.96;63.52
9676;BME280;4876;42.656;23.292;2022-09-12T06:41:42;94208.13;;;18.89;63.80
9676;BME280;4876;42.656;23.292;2022-09-12T06:44:12;94222.88;;;18.79;64.24
9676;BME280;4876;42.656;23.292;2022-09-12T06:46:39;94222.09;;;18.78;64.67
9676;BME280;4876;42.656;23.292;2022-09-12T06:49:06;94216.28;;;18.69;64.72
9676;BME280;4876;42.656;23.292;2022-09-12T06:51:33;94234.28;;;18.49;66.38
9676;BME280;4876;42.656;23.292;2022-09-12T06:54:01;94219.97;;;18.61;66.83
9676;BME280;4876;42.656;23.292;2022-09-12T06:56:28;94228.78;;;18.65;66.39
9676;BME280;4876;42.656;23.292;2022-09-12T06:58:56;94222.41;;;18.13;67.34
9676;BME280;4876;42.656;23.292;2022-09-12T07:01:26;94229.38;;;18.21;68.21
9676;BME280;4876;42.656;23.292;2022-09-12T07:03:55;94190.78;;;17.82;68.39
9676;BME280;4876;42.656;23.292;2022-09-12T07:06:23;94238.53;;;18.24;67.86
9676;BME280;4876;42.656;23.292;2022-09-12T07:08:55;94241.19;;;18.24;67.77
9676;BME280;4876;42.656;23.292;2022-09-12T07:11:24;94231.38;;;18.01;68.92
9676;BME280;4876;42.656;23.292;2022-09-12T07:13:53;94231.69;;;17.96;67.37
9676;BME280;4876;42.656;23.292;2022-09-12T07:16:21;94246.34;;;18.13;66.76
9676;BME280;4876;42.656;23.292;2022-09-12T07:18:51;94255.69;;;18.00;67.75
9676;BME280;4876;42.656;23.292;2022-09-12T07:21:18;94242.78;;;17.75;67.67
9676;BME280;4876;42.656;23.292;2022-09-12T07:23:45;94237.75;;;17.70;67.30
9676;BME280;4876;42.656;23.292;2022-09-12T07:26:14;94240.66;;;17.85;66.23
9676;BME280;4876;42.656;23.292;2022-09-12T07:28:41;94241.38;;;18.08;65.88
9676;BME280;4876;42.656;23.292;2022-09-12T07:31:10;94234.47;;;18.34;65.80
9676;BME280;4876;42.656;23.292;2022-09-12T07:33:38;94240.25;;;18.39;64.50
9676;BME280;4876;42.656;23.292;2022-09-12T07:36:08;94219.56;;;17.99;65.72
9676;BME280;4876;42.656;23.292;2022-09-12T07:38:36;94248.34;;;18.46;64.65
9676;BME280;4876;42.656;23.292;2022-09-12T07:41:09;94241.25;;;18.27;64.36
9676;BME280;4876;42.656;23.292;2022-09-12T07:43:36;94239.28;;;18.24;65.06
9676;BME280;4876;42.656;23.292;2022-09-12T07:46:02;94230.78;;;18.42;64.25
9676;BME280;4876;42.656;23.292;2022-09-12T07:48:29;94229.38;;;18.51;64.28
9676;BME280;4876;42.656;23.292;2022-09-12T07:50:57;94231.75;;;18.60;64.41
9676;BME280;4876;42.656;23.292;2022-09-12T07:53:29;94228.63;;;18.51;63.43
9676;BME280;4876;42.656;23.292;2022-09-12T07:55:56;94234.88;;;18.36;62.54
9676;BME280;4876;42.656;23.292;2022-09-12T07:58:23;94236.03;;;18.08;64.51
9676;BME280;4876;42.656;23.292;2022-09-12T08:00:50;94232.59;;;18.38;62.98
9676;BME280;4876;42.656;23.292;2022-09-12T08:03:17;94237.00;;;18.53;62.93
9676;BME280;4876;42.656;23.292;2022-09-12T08:05:44;94232.44;;;18.53;63.69
9676;BME280;4876;42.656;23.292;2022-09-12T08:08:10;94232.22;;;18.36;63.84
9676;BME280;4876;42.656;23.292;2022-09-12T08:10:38;94239.88;;;18.41;62.82
9676;BME280;4876;42.656;23.292;2022-09-12T08:13:05;94234.94;;;18.39;63.11
9676;BME280;4876;42.656;23.292;2022-09-12T08:15:34;94236.59;;;18.51;63.33
9676;BME280;4876;42.656;23.292;2022-09-12T08:18:01;94237.41;;;18.55;62.87
9676;BME280;4876;42.656;23.292;2022-09-12T08:20:27;94236.31;;;18.90;62.34
9676;BME280;4876;42.656;23.292;2022-09-12T08:22:54;94221.53;;;18.96;62.42
9676;BME280;4876;42.656;23.292;2022-09-12T08:25:21;94237.03;;;18.87;62.36
9676;BME280;4876;42.656;23.292;2022-09-12T08:27:49;94236.44;;;19.04;61.51
9676;BME280;4876;42.656;23.292;2022-09-12T08:30:16;94237.72;;;19.17;61.61
9676;BME280;4876;42.656;23.292;2022-09-12T08:32:43;94233.97;;;18.85;60.80
9676;BME280;4876;42.656;23.292;2022-09-12T08:35:10;94216.91;;;18.59;61.96
9676;BME280;4876;42.656;23.292;2022-09-12T08:37:37;94229.53;;;18.66;62.64
9676;BME280;4876;42.656;23.292;2022-09-12T08:40:04;94226.94;;;18.69;62.15
9676;BME280;4876;42.656;23.292;2022-09-12T08:42:43;94231.50;;;18.69;61.53
9676;BME280;4876;42.656;23.292;2022-09-12T08:45:17;94233.97;;;18.24;62.63
9676;BME280;4876;42.656;23.292;2022-09-12T08:47:46;94234.88;;;18.36;64.02
9676;BME280;4876;42.656;23.292;2022-09-12T08:50:17;94229.84;;;18.61;63.53
9676;BME280;4876;42.656;23.292;2022-09-12T08:52:50;94232.00;;;18.48;61.99
9676;BME280;4876;42.656;23.292;2022-09-12T08:55:26;94228.31;;;18.60;63.03
9676;BME280;4876;42.656;23.292;2022-09-12T08:57:55;94200.41;;;18.16;61.94
9676;BME280;4876;42.656;23.292;2022-09-12T09:00:28;94225.06;;;18.40;62.14
9676;BME280;4876;42.656;23.292;2022-09-12T09:03:33;94223.69;;;18.53;62.17
9676;BME280;4876;42.656;23.292;2022-09-12T09:06:16;94226.28;;;18.76;61.74
9676;BME280;4876;42.656;23.292;2022-09-12T09:08:53;94217.34;;;18.95;61.56
9676;BME280;4876;42.656;23.292;2022-09-12T09:11:47;94224.53;;;18.94;61.30
9676;BME280;4876;42.656;23.292;2022-09-12T09:14:27;94223.78;;;18.94;60.90
9676;BME280;4876;42.656;23.292;2022-09-12T09:17:22;94222.63;;;18.91;60.94
9676;BME280;4876;42.656;23.292;2022-09-12T09:19:55;94213.66;;;19.10;59.93
9676;BME280;4876;42.656;23.292;2022-09-12T09:22:30;94209.69;;;18.93;60.61
9676;BME280;4876;42.656;23.292;2022-09-12T09:25:02;94207.19;;;19.07;58.76
9676;BME280;4876;42.656;23.292;2022-09-12T09:27:35;94207.25;;;19.18;59.22
9676;BME280;4876;42.656;23.292;2022-09-12T09:30:12;94213.84;;;19.31;58.82
9676;BME280;4876;42.656;23.292;2022-09-12T09:32:43;94214.91;;;19.20;58.25
9676;BME280;4876;42.656;23.292;2022-09-12T09:35:15;94201.53;;;19.16;58.85
9676;BME280;4876;42.656;23.292;2022-09-12T09:37:50;94200.97;;;18.96;58.97
9676;BME280;4876;42.656;23.292;2022-09-12T09:40:24;94202.69;;;19.15;59.21
9676;BME280;4876;42.656;23.292;2022-09-12T09:42:58;94195.41;;;19.12;59.12
9676;BME280;4876;42.656;23.292;2022-09-12T09:45:28;94183.09;;;19.00;59.87
9676;BME280;4876;42.656;23.292;2022-09-12T09:48:02;94198.00;;;19.05;59.76
9676;BME280;4876;42.656;23.292;2022-09-12T09:50:32;94196.72;;;18.92;60.38
9676;BME280;4876;42.656;23.292;2022-09-12T09:52:59;94191.47;;;18.99;60.55
9676;BME280;4876;42.656;23.292;2022-09-12T09:55:33;94194.63;;;19.12;60.09
9676;BME280;4876;42.656;23.292;2022-09-12T09:58:04;94188.69;;;19.29;59.93
9676;BME280;4876;42.656;23.292;2022-09-12T10:00:32;94202.69;;;19.15;58.89
9676;BME280;4876;42.656;23.292;2022-09-12T10:03:23;94203.53;;;18.86;59.58
9676;BME280;4876;42.656;23.292;2022-09-12T10:05:53;94195.84;;;18.80;60.30
9676;BME280;4876;42.656;23.292;2022-09-12T10:08:23;94190.56;;;18.84;59.39
9676;BME280;4876;42.656;23.292;2022-09-12T10:10:53;94182.28;;;18.93;59.13
9676;BME280;4876;42.656;23.292;2022-09-12T10:13:24;94191.94;;;19.08;59.48
9676;BME280;4876;42.656;23.292;2022-09-12T10:15:58;94191.03;;;19.37;60.52
9676;BME280;4876;42.656;23.292;2022-09-12T10:18:35;94182.69;;;19.39;59.71
9676;BME280;4876;42.656;23.292;2022-09-12T10:21:12;94178.56;;;19.49;59.57
9676;BME280;4876;42.656;23.292;2022-09-12T10:23:41;94185.91;;;19.59;59.49
9676;BME280;4876;42.656;23.292;2022-09-12T10:26:10;94191.34;;;19.73;58.70
9676;BME280;4876;42.656;23.292;2022-09-12T10:28:39;94190.41;;;19.51;59.02
9676;BME280;4876;42.656;23.292;2022-09-12T10:31:07;94190.97;;;19.27;58.38
9676;BME280;4876;42.656;23.292;2022-09-12T10:33:41;94195.53;;;19.26;59.15
9676;BME280;4876;42.656;23.292;2022-09-12T10:36:09;94186.69;;;19.19;60.33
9676;BME280;4876;42.656;23.292;2022-09-12T10:38:36;94181.63;;;19.03;60.85
9676;BME280;4876;42.656;23.292;2022-09-12T10:41:07;94186.41;;;19.27;60.87
9676;BME280;4876;42.656;23.292;2022-09-12T10:43:38;94195.56;;;19.30;61.21
9676;BME280;4876;42.656;23.292;2022-09-12T10:46:26;94189.84;;;19.31;58.12
9676;BME280;4876;42.656;23.292;2022-09-12T10:49:23;94200.41;;;19.17;56.15
9676;BME280;4876;42.656;23.292;2022-09-12T10:51:51;94189.63;;;19.03;56.92
9676;BME280;4876;42.656;23.292;2022-09-12T10:54:20;94193.00;;;19.00;58.15
9676;BME280;4876;42.656;23.292;2022-09-12T10:57:02;94192.28;;;19.03;58.20
9676;BME280;4876;42.656;23.292;2022-09-12T10:59:40;94190.81;;;19.09;58.62
9676;BME280;4876;42.656;23.292;2022-09-12T11:02:14;94187.91;;;19.25;59.92
9676;BME280;4876;42.656;23.292;2022-09-12T11:04:53;94194.19;;;19.47;58.99
9676;BME280;4876;42.656;23.292;2022-09-12T11:07:32;94193.25;;;19.73;55.95
9676;BME280;4876;42.656;23.292;2022-09-12T11:10:08;94189.28;;;20.07;55.24
9676;BME280;4876;42.656;23.292;2022-09-12T11:12:40;94181.63;;;20.02;54.96
9676;BME280;4876;42.656;23.292;2022-09-12T11:15:21;94189.22;;;19.97;55.69
9676;BME280;4876;42.656;23.292;2022-09-12T11:17:57;94175.00;;;19.78;55.99
9676;BME280;4876;42.656;23.292;2022-09-12T11:20:47;94182.31;;;19.88;55.99
9676;BME280;4876;42.656;23.292;2022-09-12T11:23:33;94182.97;;;19.75;56.44
9676;BME280;4876;42.656;23.292;2022-09-12T11:26:11;94179.13;;;19.69;57.42
9676;BME280;4876;42.656;23.292;2022-09-12T11:28:53;94187.63;;;19.81;56.91
9676;BME280;4876;42.656;23.292;2022-09-12T11:31:41;94183.56;;;19.50;57.47
9676;BME280;4876;42.656;23.292;2022-09-12T11:34:15;94185.50;;;19.57;58.37
9676;BME280;4876;42.656;23.292;2022-09-12T11:37:04;94183.47;;;19.91;57.92
9676;BME280;4876;42.656;23.292;2022-09-12T11:39:38;94185.44;;;20.01;58.57
9676;BME280;4876;42.656;23.292;2022-09-12T11:42:11;94175.22;;;20.14;57.50
9676;BME280;4876;42.656;23.292;2022-09-12T11:44:43;94177.66;;;19.78;57.96
9676;BME280;4876;42.656;23.292;2022-09-12T11:47:13;94171.47;;;19.63;59.42
9676;BME280;4876;42.656;23.292;2022-09-12T11:49:43;94162.84;;;19.33;58.99
9676;BME280;4876;42.656;23.292;2022-09-12T11:52:15;94175.84;;;19.42;58.15
9676;BME280;4876;42.656;23.292;2022-09-12T11:54:45;94180.50;;;19.52;58.45
9676;BME280;4876;42.656;23.292;2022-09-12T11:57:16;94177.72;;;19.37;58.49
9676;BME280;4876;42.656;23.292;2022-09-12T11:59:47;94173.22;;;19.45;58.77
9676;BME280;4876;42.656;23.292;2022-09-12T12:02:22;94171.28;;;19.39;58.97
9676;BME280;4876;42.656;23.292;2022-09-12T12:05:01;94175.91;;;19.49;58.73
9676;BME280;4876;42.656;23.292;2022-09-12T12:07:37;94172.84;;;19.47;57.50
9676;BME280;4876;42.656;23.292;2022-09-12T12:10:06;94171.72;;;19.48;57.60
9676;BME280;4876;42.656;23.292;2022-09-12T12:12:47;94172.41;;;19.41;56.53
9676;BME280;4876;42.656;23.292;2022-09-12T12:15:16;94157.41;;;19.22;56.76
9676;BME280;4876;42.656;23.292;2022-09-12T12:17:43;94173.13;;;19.34;56.54
9676;BME280;4876;42.656;23.292;2022-09-12T12:20:15;94168.91;;;19.30;57.55
9676;BME280;4876;42.656;23.292;2022-09-12T12:22:52;94156.75;;;19.36;57.43
9676;BME280;4876;42.656;23.292;2022-09-12T12:25:25;94163.75;;;19.51;57.82
9676;BME280;4876;42.656;23.292;2022-09-12T12:28:02;94149.94;;;19.39;57.13
9676;BME280;4876;42.656;23.292;2022-09-12T12:30:58;94152.22;;;19.40;57.87
9676;BME280;4876;42.656;23.292;2022-09-12T12:33:51;94153.06;;;19.51;58.35
9676;BME280;4876;42.656;23.292;2022-09-12T12:36:32;94157.22;;;19.45;57.40
9676;BME280;4876;42.656;23.292;2022-09-12T12:42:56;94152.47;;;19.72;56.33
9676;BME280;4876;42.656;23.292;2022-09-12T12:45:58;94163.53;;;19.71;57.61
9676;BME280;4876;42.656;23.292;2022-09-12T12:51:30;94159.09;;;19.41;57.69
9676;BME280;4876;42.656;23.292;2022-09-12T12:54:00;94150.91;;;19.68;57.06
9676;BME280;4876;42.656;23.292;2022-09-12T12:56:38;94164.66;;;19.70;56.86
9676;BME280;4876;42.656;23.292;2022-09-12T12:59:15;94161.56;;;19.64;55.99
9676;BME280;4876;42.656;23.292;2022-09-12T13:01:45;94174.38;;;19.48;57.31
9676;BME280;4876;42.656;23.292;2022-09-12T13:04:14;94171.31;;;19.46;57.57
9676;BME280;4876;42.656;23.292;2022-09-12T13:06:43;94172.38;;;19.34;57.97
9676;BME280;4876;42.656;23.292;2022-09-12T13:09:20;94165.81;;;19.24;59.14
9676;BME280;4876;42.656;23.292;2022-09-12T13:11:58;94153.56;;;19.16;59.23
9676;BME280;4876;42.656;23.292;2022-09-12T13:14:46;94160.59;;;19.39;58.65
9676;BME280;4876;42.656;23.292;2022-09-12T13:17:18;94161.84;;;19.52;57.95
9676;BME280;4876;42.656;23.292;2022-09-12T13:19:48;94159.91;;;19.49;58.11
9676;BME280;4876;42.656;23.292;2022-09-12T13:22:15;94165.22;;;19.49;57.82
9676;BME280;4876;42.656;23.292;2022-09-12T13:24:43;94164.28;;;19.23;58.23
9676;BME280;4876;42.656;23.292;2022-09-12T13:27:18;94163.50;;;19.19;58.55
9676;BME280;4876;42.656;23.292;2022-09-12T13:29:45;94152.41;;;19.17;58.30
9676;BME280;4876;42.656;23.292;2022-09-12T13:32:14;94154.22;;;19.06;58.53
9676;BME280;4876;42.656;23.292;2022-09-12T13:34:56;94154.91;;;18.96;60.29
9676;BME280;4876;42.656;23.292;2022-09-12T13:37:39;94143.97;;;19.08;60.56
9676;BME280;4876;42.656;23.292;2022-09-12T13:40:25;94145.78;;;19.00;61.04